Time;durP1;ratioP1;P1;durP2;ratioP2;P2;SDS_P1;SDS_P2;PMS_P1;PMS_P2;Temp;Humidity;BMP_temperature;BMP_pressure;BME280_temperature;BME280_humidity;BME280_pressure;Samples;Min_cycle;Max_cycle;Signal;HPM_P1;HPM_P2
2022/06/03 00:02:37;;;;;;;4.17;3.87;;;;;;;23.48;67.68;99572.16;5075288;28;20201;-71
2022/06/03 00:05:45;;;;;;;4.70;4.20;;;;;;;23.46;68.02;99560.78;5074642;28;20235;-71
2022/06/03 00:08:40;;;;;;;7.10;4.13;;;;;;;23.45;68.17;99556.47;5062715;28;20654;-71
2022/06/03 00:11:24;;;;;;;5.10;4.37;;;;;;;23.33;68.09;99536.97;5074405;28;20182;-70
2022/06/03 00:14:06;;;;;;;9.37;4.50;;;;;;;23.40;67.97;99553.75;5073343;28;20693;-70
2022/06/03 00:16:47;;;;;;;4.40;4.00;;;;;;;23.34;67.66;99560.28;5074204;28;20201;-70
2022/06/03 00:19:43;;;;;;;4.17;3.87;;;;;;;23.34;67.77;99562.16;5074834;28;20189;-69
2022/06/03 00:22:33;;;;;;;6.50;3.73;;;;;;;23.39;67.45;99557.56;5073877;28;20251;-71
2022/06/03 00:25:23;;;;;;;7.33;4.47;;;;;;;23.26;67.60;99549.19;5073592;28;20195;-71
2022/06/03 00:28:34;;;;;;;3.80;3.50;;;;;;;23.14;67.96;99554.91;5073933;28;20191;-71
2022/06/03 00:31:18;;;;;;;7.43;4.50;;;;;;;23.11;68.00;99550.03;5031792;28;20305;-70
2022/06/03 00:34:08;;;;;;;4.37;3.93;;;;;;;22.87;68.77;99551.72;5031635;28;20258;-71
2022/06/03 00:36:50;;;;;;;4.13;3.83;;;;;;;22.82;68.77;99543.59;5064704;28;20254;-71
2022/06/03 00:39:40;;;;;;;4.47;4.07;;;;;;;22.83;68.78;99541.72;5073830;28;20182;-71
2022/06/03 00:42:32;;;;;;;4.47;4.07;;;;;;;22.69;68.98;99518.97;5073816;28;20193;-71
2022/06/03 00:45:23;;;;;;;3.90;3.60;;;;;;;22.73;69.32;99537.13;5074076;28;20190;-72
2022/06/03 00:48:08;;;;;;;4.17;3.97;;;;;;;22.74;69.50;99541.44;5073832;28;20189;-72
2022/06/03 00:50:55;;;;;;;5.47;4.10;;;;;;;22.78;69.49;99537.09;5073143;28;20234;-72
2022/06/03 00:53:59;;;;;;;4.43;4.03;;;;;;;22.74;69.79;99536.03;5073216;28;20213;-71
2022/06/03 00:56:48;;;;;;;7.37;4.20;;;;;;;22.74;69.56;99536.03;5073708;28;20253;-71
2022/06/03 00:59:43;;;;;;;6.67;4.20;;;;;;;22.71;69.94;99535.78;5072828;28;20641;-71
2022/06/03 01:02:25;;;;;;;4.80;4.30;;;;;;;22.67;70.02;99532.78;5070324;28;20200;-70
2022/06/03 01:05:05;;;;;;;6.43;4.47;;;;;;;22.68;69.88;99534.44;5073235;28;20196;-71
2022/06/03 01:07:42;;;;;;;6.40;4.87;;;;;;;22.75;69.80;99534.94;5072690;28;20196;-71
2022/06/03 01:10:25;;;;;;;6.00;4.50;;;;;;;22.72;70.10;99535.50;5073261;28;20195;-71
2022/06/03 01:13:13;;;;;;;5.73;4.87;;;;;;;22.65;70.15;99537.66;5073157;28;20209;-70
2022/06/03 01:15:52;;;;;;;5.53;5.07;;;;;;;22.67;69.92;99535.47;5072680;28;20611;-71
2022/06/03 01:18:36;;;;;;;5.07;4.63;;;;;;;22.65;69.92;99531.44;5072591;28;20239;-71
2022/06/03 01:21:17;;;;;;;5.90;4.70;;;;;;;22.67;69.78;99524.66;5073061;28;20188;-70
2022/06/03 01:24:16;;;;;;;6.83;4.80;;;;;;;22.69;69.86;99525.22;5072437;28;20197;-71
2022/06/03 01:27:10;;;;;;;5.60;5.10;;;;;;;22.65;69.84;99529.53;5072870;28;20192;-71
2022/06/03 01:29:55;;;;;;;6.37;5.20;;;;;;;22.63;69.82;99529.03;5072421;28;20195;-71
2022/06/03 01:32:53;;;;;;;6.33;5.13;;;;;;;22.62;70.05;99538.22;5072217;28;20645;-70
2022/06/03 01:35:38;;;;;;;8.00;5.00;;;;;;;22.69;69.52;99530.63;5072357;28;20239;-71
2022/06/03 01:38:14;;;;;;;10.33;5.73;;;;;;;22.52;70.15;99522.00;5072237;28;20239;-70
2022/06/03 01:41:01;;;;;;;5.80;5.30;;;;;;;22.55;70.20;99526.88;5072247;28;20184;-70
2022/06/03 01:44:03;;;;;;;6.27;5.70;;;;;;;22.50;70.47;99517.94;5072492;28;20184;-71
2022/06/03 01:46:31;;;;;;;10.50;5.97;;;;;;;22.52;70.45;99522.00;5057061;28;20709;-71
2022/06/03 01:49:29;;;;;;;8.27;6.37;;;;;;;22.48;70.60;99529.03;5072472;28;20261;-71
2022/06/03 01:52:35;;;;;;;13.30;7.43;;;;;;;22.47;71.05;99521.19;5071963;28;20180;-71
2022/06/03 01:55:59;;;;;;;8.03;6.30;;;;;;;22.50;70.81;99523.34;5071415;28;20253;-71
2022/06/03 01:58:41;;;;;;;7.37;6.40;;;;;;;22.37;71.37;99526.56;5071979;28;20717;-71
2022/06/03 02:01:35;;;;;;;17.30;6.97;;;;;;;22.22;72.45;99523.88;5072223;28;20249;-71
2022/06/03 02:04:20;;;;;;;9.20;5.90;;;;;;;22.19;72.67;99527.09;5072222;28;20258;-71
2022/06/03 02:07:18;;;;;;;9.03;5.87;;;;;;;22.19;72.70;99529.81;5071856;28;20185;-70
2022/06/03 02:10:35;;;;;;;6.57;5.73;;;;;;;22.22;72.72;99527.34;5072195;28;20193;-70
2022/06/03 02:13:30;;;;;;;8.33;5.47;;;;;;;22.14;73.03;99533.34;5069239;28;20269;-71
2022/06/03 02:19:48;;;;;;;7.37;5.57;;;;;;;22.01;73.29;99528.44;5070450;28;20191;-71
2022/06/03 02:22:58;;;;;;;7.63;5.80;;;;;;;21.85;73.79;99534.09;5071835;28;20202;-70
2022/06/03 02:25:45;;;;;;;6.97;5.50;;;;;;;21.84;73.88;99525.16;5072175;28;20199;-71
2022/06/03 02:28:39;;;;;;;5.70;5.17;;;;;;;21.89;73.66;99532.50;5072045;28;20222;-70
2022/06/03 02:31:43;;;;;;;5.70;5.20;;;;;;;21.91;73.64;99535.72;5071658;28;20184;-71
2022/06/03 02:34:48;;;;;;;7.27;5.80;;;;;;;21.89;73.58;99546.81;5068730;28;20218;-71
2022/06/03 02:37:46;;;;;;;9.43;5.50;;;;;;;21.80;74.22;99540.31;5075218;28;20184;-71
2022/06/03 02:40:28;;;;;;;7.77;6.10;;;;;;;21.87;73.73;99548.97;5075123;28;20199;-70
2022/06/03 02:43:19;;;;;;;5.63;5.10;;;;;;;21.84;73.96;99549.50;5075513;28;20188;-69
2022/06/03 02:46:18;;;;;;;7.23;5.93;;;;;;;21.90;73.41;99551.16;5076410;28;20181;-71
2022/06/03 02:49:25;;;;;;;9.37;6.00;;;;;;;21.88;73.69;99550.59;5073806;28;20199;-71
2022/06/03 02:52:35;;;;;;;8.40;6.40;;;;;;;21.81;73.59;99550.03;5075346;28;20191;-70
2022/06/03 02:55:41;;;;;;;10.57;6.43;;;;;;;21.70;74.06;99552.97;5075855;28;20194;-71
2022/06/03 02:58:40;;;;;;;7.00;6.30;;;;;;;21.60;74.21;99545.63;5075500;28;20249;-71
2022/06/03 03:01:40;;;;;;;6.90;6.27;;;;;;;21.56;74.09;99552.66;5072899;28;20615;-71
2022/06/03 03:04:32;;;;;;;6.43;5.87;;;;;;;21.62;73.94;99543.50;5075070;28;20192;-71
2022/06/03 03:07:32;;;;;;;7.23;6.07;;;;;;;21.72;73.50;99554.34;5074433;28;20245;-71
2022/06/03 03:10:09;;;;;;;6.07;5.47;;;;;;;21.80;72.91;99564.66;5074373;28;20640;-72
2022/06/03 03:13:03;;;;;;;5.97;5.13;;;;;;;21.88;72.85;99556.00;5075578;28;20183;-72
2022/06/03 03:15:53;;;;;;;5.33;4.93;;;;;;;21.98;72.14;99571.44;5075975;28;20594;-71
2022/06/03 03:18:53;;;;;;;6.17;5.43;;;;;;;22.15;71.58;99578.25;5074802;28;20652;-71
2022/06/03 03:21:49;;;;;;;8.10;5.00;;;;;;;22.31;70.82;99571.78;5075921;28;20192;-71
2022/06/03 03:25:09;;;;;;;7.87;5.47;;;;;;;22.47;70.08;99578.84;5075033;28;20195;-70
2022/06/03 03:28:15;;;;;;;6.13;5.50;;;;;;;22.56;69.91;99579.94;5074642;28;20196;-70
2022/06/03 03:30:55;;;;;;;7.17;6.33;;;;;;;22.56;69.62;99579.94;5033699;28;20642;-71
2022/06/03 03:33:36;;;;;;;7.30;5.80;;;;;;;22.55;69.80;99583.72;5073579;28;20265;-71
2022/06/03 03:36:40;;;;;;;10.67;5.90;;;;;;;22.69;69.32;99590.22;5075378;28;20192;-70
2022/06/03 03:39:43;;;;;;;6.13;5.53;;;;;;;22.98;68.41;99591.25;5074906;28;20184;-70
2022/06/03 03:42:44;;;;;;;7.23;5.60;;;;;;;23.24;66.99;99592.84;5072339;28;20663;-71
2022/06/03 03:45:45;;;;;;;10.43;5.40;;;;;;;23.22;67.20;99597.72;5075112;28;20188;-70
2022/06/03 03:48:40;;;;;;;10.40;5.30;;;;;;;23.29;66.90;99600.97;5073550;28;20246;-71
2022/06/03 03:51:19;;;;;;;9.53;5.73;;;;;;;23.30;66.61;99602.59;5074842;28;20228;-70
2022/06/03 03:54:28;;;;;;;7.40;5.67;;;;;;;23.41;65.99;99614.22;5074018;28;20213;-71
2022/06/03 03:57:22;;;;;;;11.87;5.93;;;;;;;23.52;66.16;99622.03;5073744;28;20193;-72
2022/06/03 04:00:08;;;;;;;6.43;5.30;;;;;;;23.62;66.03;99627.44;5073672;28;20247;-72
2022/06/03 04:03:18;;;;;;;9.13;5.77;;;;;;;23.90;65.25;99629.47;5073535;28;20205;-73
2022/06/03 04:06:20;;;;;;;6.63;4.77;;;;;;;24.83;61.95;99633.75;5075089;28;20247;-74
2022/06/03 04:09:40;;;;;;;8.30;4.47;;;;;;;26.12;57.67;99650.84;5074486;28;20610;-72
2022/06/03 04:12:45;;;;;;;8.87;4.20;;;;;;;27.26;54.73;99650.97;5073559;28;20652;-73
2022/06/03 04:15:51;;;;;;;4.13;3.80;;;;;;;28.69;50.79;99662.97;5073947;28;20196;-74
2022/06/03 04:18:44;;;;;;;15.27;4.73;;;;;;;30.27;45.85;99679.25;5067386;28;20565;-75
2022/06/03 04:21:44;;;;;;;10.40;4.80;;;;;;;31.59;42.38;99676.25;5073970;28;20192;-77
2022/06/03 04:24:51;;;;;;;5.83;3.97;;;;;;;32.62;38.96;99674.53;5073379;28;20655;-74
2022/06/03 04:27:53;;;;;;;6.37;4.30;;;;;;;33.68;36.68;99670.06;5073722;28;20675;-73
2022/06/03 04:30:44;;;;;;;8.37;4.80;;;;;;;34.61;34.53;99681.69;5073642;28;20252;-72
2022/06/03 04:33:52;;;;;;;8.90;4.53;;;;;;;35.13;33.65;99685.19;5074417;28;20592;-70
2022/06/03 04:36:56;;;;;;;5.68;4.10;;;;;;;36.01;31.47;99691.09;5073376;28;20184;-70
2022/06/03 04:39:55;;;;;;;11.98;4.03;;;;;;;36.55;30.86;99697.50;5073855;28;20257;-73
2022/06/03 04:43:13;;;;;;;7.60;4.15;;;;;;;37.42;29.86;99695.72;5050720;28;20207;-70
2022/06/03 04:46:44;;;;;;;6.00;3.80;;;;;;;37.93;28.60;99694.28;5073087;28;20187;-67
2022/06/03 04:49:48;;;;;;;7.43;3.40;;;;;;;37.91;27.54;99702.16;5073376;28;20241;-68
2022/06/03 04:52:53;;;;;;;7.28;3.78;;;;;;;37.23;28.74;99701.31;5072932;28;20192;-68
2022/06/03 04:55:53;;;;;;;10.35;3.95;;;;;;;37.22;28.69;99706.06;5072870;28;20771;-67
2022/06/03 04:58:56;;;;;;;6.38;3.60;;;;;;;38.42;27.95;99710.91;5055922;28;20196;-68
2022/06/03 05:02:30;;;;;;;7.18;3.70;;;;;;;38.74;27.10;99706.59;5073171;28;20196;-67
2022/06/03 05:05:52;;;;;;;4.03;3.63;;;;;;;38.64;26.93;99707.25;4991240;28;20269;-67
2022/06/03 05:09:21;;;;;;;6.43;3.80;;;;;;;38.61;26.81;99711.59;4957123;28;20194;-67
2022/06/03 05:12:43;;;;;;;14.68;4.07;;;;;;;38.36;27.81;99706.81;5010680;28;20615;-67
2022/06/03 05:16:03;;;;;;;6.10;3.67;;;;;;;38.43;26.92;99712.47;5010490;28;20233;-68
2022/06/03 05:19:06;;;;;;;10.57;3.53;;;;;;;38.42;27.49;99714.47;5031144;28;20244;-68
2022/06/03 05:22:17;;;;;;;4.90;3.83;;;;;;;38.46;27.62;99715.31;5072494;28;20543;-68
2022/06/03 05:25:19;;;;;;;6.75;3.85;;;;;;;38.19;27.80;99704.59;5029021;28;20251;-69
2022/06/03 05:28:23;;;;;;;5.45;3.30;;;;;;;38.12;28.11;99708.06;5071486;28;20257;-68
2022/06/03 05:31:12;;;;;;;12.13;3.75;;;;;;;38.17;28.05;99699.41;5072124;28;20610;-68
2022/06/03 05:34:25;;;;;;;6.60;2.78;;;;;;;38.21;27.93;99703.03;5068200;28;20630;-68
2022/06/03 05:37:05;;;;;;;11.85;3.90;;;;;;;37.98;28.71;99713.38;5061842;28;20210;-67
2022/06/03 05:39:58;;;;;;;5.38;3.80;;;;;;;37.85;28.85;99709.22;5072749;28;20240;-68
2022/06/03 05:42:45;;;;;;;7.30;4.13;;;;;;;38.02;28.49;99708.69;5071681;28;20196;-67
2022/06/03 05:45:52;;;;;;;9.93;4.18;;;;;;;37.69;29.40;99705.75;5042273;28;20628;-68
2022/06/03 05:48:29;;;;;;;12.02;4.03;;;;;;;37.78;29.46;99702.72;5069293;28;20187;-70
2022/06/03 05:51:06;;;;;;;11.68;3.60;;;;;;;37.56;29.82;99703.50;5068605;28;20241;-66
2022/06/03 05:53:38;;;;;;;9.95;4.05;;;;;;;37.41;30.19;99710.78;5071755;28;20216;-68
2022/06/03 05:56:43;;;;;;;4.63;3.20;;;;;;;37.76;30.21;99710.63;5072622;28;20188;-68
2022/06/03 05:59:22;;;;;;;14.70;4.65;;;;;;;38.69;28.86;99716.06;5072079;28;20222;-69
2022/06/03 06:02:09;;;;;;;13.30;3.92;;;;;;;38.73;28.58;99722.47;5052149;28;20203;-67
2022/06/03 06:04:52;;;;;;;6.82;3.70;;;;;;;38.48;28.73;99721.31;5052308;28;20193;-68
2022/06/03 06:07:28;;;;;;;9.05;3.58;;;;;;;38.62;28.71;99715.94;5066374;28;20667;-66
2022/06/03 06:09:59;;;;;;;5.15;2.85;;;;;;;37.92;29.64;99712.06;5068044;28;20188;-68
2022/06/03 06:12:38;;;;;;;4.88;3.95;;;;;;;38.03;29.32;99704.75;5071386;28;20191;-67
2022/06/03 06:15:26;;;;;;;19.73;3.90;;;;;;;38.21;29.46;99705.81;5071930;28;20212;-67
2022/06/03 06:18:01;;;;;;;5.45;3.25;;;;;;;38.13;29.50;99704.09;5071382;28;20180;-67
2022/06/03 06:20:44;;;;;;;9.05;3.40;;;;;;;38.07;29.59;99700.06;5071758;28;20217;-68
2022/06/03 06:23:18;;;;;;;4.38;3.45;;;;;;;38.23;28.83;99703.47;5072296;28;20180;-67
2022/06/03 06:26:10;;;;;;;7.15;3.30;;;;;;;37.73;29.22;99698.31;5072471;28;20192;-67
2022/06/03 06:28:59;;;;;;;5.68;3.08;;;;;;;37.46;29.37;99702.16;5051814;28;20547;-67
2022/06/03 06:31:42;;;;;;;7.47;3.20;;;;;;;37.26;29.43;99697.81;5052218;28;20189;-66
2022/06/03 06:34:27;;;;;;;16.15;4.13;;;;;;;37.25;29.87;99682.34;5051713;28;20645;-66
2022/06/03 06:37:41;;;;;;;5.05;3.45;;;;;;;37.29;30.04;99697.09;5071651;28;20215;-66
2022/06/03 06:40:25;;;;;;;3.72;3.30;;;;;;;37.20;29.77;99699.28;5070811;28;20196;-66
2022/06/03 06:43:02;;;;;;;14.55;4.03;;;;;;;37.25;29.99;99707.31;5071990;28;20211;-67
2022/06/03 06:45:37;;;;;;;6.50;3.58;;;;;;;36.74;30.26;99703.06;5051777;28;20242;-66
2022/06/03 06:48:16;;;;;;;4.85;3.58;;;;;;;36.64;30.93;99703.63;5051511;28;20189;-68
2022/06/03 06:50:51;;;;;;;7.57;3.92;;;;;;;36.71;30.35;99698.28;5052377;28;20282;-66
2022/06/03 06:53:32;;;;;;;8.38;3.85;;;;;;;36.61;30.58;99699.63;5051882;28;20238;-67
2022/06/03 06:56:08;;;;;;;7.47;3.65;;;;;;;36.30;31.47;99691.41;5051438;28;20189;-66
2022/06/03 06:58:43;;;;;;;8.02;3.85;;;;;;;35.87;31.91;99696.28;5051750;28;20185;-67
2022/06/03 07:01:13;;;;;;;6.43;3.58;;;;;;;35.89;32.12;99685.66;5051374;28;20200;-67
2022/06/03 07:03:57;;;;;;;11.35;4.38;;;;;;;36.06;31.80;99691.63;5051396;28;20199;-67
2022/06/03 07:06:42;;;;;;;7.38;3.33;;;;;;;36.02;32.04;99687.97;5052070;28;20540;-67
2022/06/03 07:09:33;;;;;;;220.02;18.35;;;;;;;35.73;32.73;99690.38;5051377;28;20236;-68
2022/06/03 07:12:06;;;;;;;10.80;3.95;;;;;;;35.58;32.26;99689.22;5072448;28;20199;-67
2022/06/03 07:14:39;;;;;;;6.93;3.83;;;;;;;35.39;32.27;99682.78;5071502;28;20204;-66
2022/06/03 07:20:08;;;;;;;6.68;3.38;;;;;;;35.14;32.92;99684.03;5071300;28;20198;-65
2022/06/03 07:22:43;;;;;;;9.48;3.55;;;;;;;35.40;33.31;99687.16;5072786;28;20693;-66
2022/06/03 07:25:24;;;;;;;5.40;3.60;;;;;;;35.47;33.25;99690.09;5074791;28;20188;-65
2022/06/03 07:27:57;;;;;;;5.93;3.42;;;;;;;35.42;33.48;99684.81;5075134;28;20188;-65
2022/06/03 07:30:32;;;;;;;10.35;4.20;;;;;;;35.46;32.21;99691.25;5072850;28;20249;-67
2022/06/03 07:33:06;;;;;;;8.50;3.53;;;;;;;34.99;32.73;99693.09;5073479;28;20188;-64
2022/06/03 07:35:42;;;;;;;8.00;3.50;;;;;;;35.40;32.91;99681.63;5072482;28;20207;-66
2022/06/03 07:38:20;;;;;;;9.98;4.07;;;;;;;35.81;32.15;99692.97;5074304;28;20180;-64
2022/06/03 07:40:52;;;;;;;4.03;3.08;;;;;;;36.21;31.08;99690.00;5074255;28;20188;-64
2022/06/03 07:43:24;;;;;;;11.25;3.90;;;;;;;36.06;31.45;99686.09;5074341;28;20195;-65
2022/06/03 07:45:56;;;;;;;4.80;3.45;;;;;;;36.05;31.78;99675.38;5073963;28;20262;-65
2022/06/03 07:48:26;;;;;;;14.52;4.03;;;;;;;36.51;30.98;99699.38;5075316;28;20196;-65
2022/06/03 07:50:58;;;;;;;10.63;3.83;;;;;;;36.83;31.14;99690.59;5073426;28;20688;-64
2022/06/03 07:53:40;;;;;;;10.57;4.18;;;;;;;36.38;31.82;99692.38;5074422;28;20184;-64
2022/06/03 07:56:09;;;;;;;9.95;3.85;;;;;;;36.19;31.43;99684.81;5073512;28;20683;-63
2022/06/03 07:58:37;;;;;;;7.20;2.80;;;;;;;36.46;30.22;99685.84;5073958;28;20199;-60
2022/06/03 08:01:05;;;;;;;3.90;3.33;;;;;;;36.12;31.91;99684.66;5074169;28;20275;-60
2022/06/03 08:03:37;;;;;;;5.35;3.80;;;;;;;36.07;31.88;99676.63;5073740;28;20635;-60
2022/06/03 08:06:07;;;;;;;3.95;3.38;;;;;;;35.89;31.84;99683.69;5073419;28;20287;-60
2022/06/03 08:11:30;;;;;;;20.05;4.32;;;;;;;35.84;32.40;99695.03;5072236;28;20203;-61
2022/06/03 08:13:59;;;;;;;5.78;4.10;;;;;;;35.64;33.71;99692.53;5071586;28;20203;-59
2022/06/03 08:16:32;;;;;;;4.72;4.15;;;;;;;35.98;32.25;99687.09;5073059;28;20591;-59
2022/06/03 08:19:06;;;;;;;5.15;3.20;;;;;;;36.33;31.11;99703.72;5074513;28;20184;-60
2022/06/03 08:21:38;;;;;;;4.43;3.25;;;;;;;36.67;31.68;99691.81;5073449;28;20556;-59
2022/06/03 08:24:08;;;;;;;7.57;3.67;;;;;;;36.58;31.83;99699.56;5073473;28;20184;-59
2022/06/03 08:26:39;;;;;;;5.55;3.40;;;;;;;36.25;31.58;99690.91;5073565;28;20196;-59
2022/06/03 08:29:13;;;;;;;6.28;4.13;;;;;;;36.00;32.07;99686.69;5073432;28;20426;-60
2022/06/03 08:31:40;;;;;;;6.22;3.67;;;;;;;35.80;32.37;99680.31;5072712;28;20721;-59
2022/06/03 08:34:14;;;;;;;9.77;6.15;;;;;;;35.47;33.19;99681.78;5071695;28;20278;-60
2022/06/03 08:36:42;;;;;;;6.75;3.72;;;;;;;35.69;33.00;99690.28;5058697;28;20185;-60
2022/06/03 08:39:27;;;;;;;7.60;4.00;;;;;;;35.71;33.18;99693.50;5053185;28;20197;-61
2022/06/03 08:42:05;;;;;;;7.20;4.05;;;;;;;35.46;33.13;99677.44;5071470;28;20187;-60
2022/06/03 08:44:46;;;;;;;3.50;3.30;;;;;;;35.07;33.76;99686.63;5073393;28;20238;-61
2022/06/03 08:47:19;;;;;;;10.20;3.72;;;;;;;35.38;33.33;99673.69;5073147;28;20215;-60
2022/06/03 08:49:57;;;;;;;8.38;4.05;;;;;;;35.43;32.93;99678.16;5072346;28;20223;-60
2022/06/03 08:52:32;;;;;;;4.10;3.40;;;;;;;35.32;33.09;99668.78;5072730;28;20187;-59
2022/06/03 08:55:05;;;;;;;7.53;4.30;;;;;;;35.14;31.81;99678.50;5073261;28;20211;-60
2022/06/03 08:57:40;;;;;;;30.10;5.35;;;;;;;34.96;31.47;99682.75;5072787;28;20188;-60
2022/06/03 09:00:10;;;;;;;8.50;3.58;;;;;;;35.01;32.46;99674.22;5072499;28;20655;-62
2022/06/03 09:02:45;;;;;;;5.18;3.53;;;;;;;34.98;32.19;99670.19;5072623;28;20188;-61
2022/06/03 09:05:20;;;;;;;3.92;3.03;;;;;;;35.06;32.13;99674.75;5072482;28;20183;-65
2022/06/03 09:07:52;;;;;;;4.88;3.38;;;;;;;35.21;31.18;99673.19;5070190;28;20712;-65
2022/06/03 09:10:25;;;;;;;13.00;3.60;;;;;;;35.39;28.89;99677.25;5071053;28;20238;-64
2022/06/03 09:12:59;;;;;;;3.53;3.03;;;;;;;35.50;28.91;99670.03;5072472;28;20194;-65
2022/06/03 09:15:29;;;;;;;4.07;3.30;;;;;;;35.72;28.82;99666.66;5072306;28;20207;-64
2022/06/03 09:17:59;;;;;;;4.97;3.60;;;;;;;36.14;28.80;99670.44;5072395;28;20624;-65
2022/06/03 09:20:30;;;;;;;4.53;3.72;;;;;;;36.32;28.95;99677.22;5072689;28;20585;-66
2022/06/03 09:23:00;;;;;;;3.90;3.40;;;;;;;36.30;28.46;99672.03;5072893;28;20192;-65
2022/06/03 09:25:31;;;;;;;4.38;2.97;;;;;;;36.45;27.37;99668.41;5072165;28;20203;-68
2022/06/03 09:28:00;;;;;;;4.60;3.85;;;;;;;36.69;27.30;99667.38;5072811;28;20624;-68
2022/06/03 09:30:31;;;;;;;3.35;2.97;;;;;;;36.94;27.67;99660.34;5072063;28;20200;-66
2022/06/03 09:33:00;;;;;;;35.50;5.72;;;;;;;37.25;26.93;99662.97;5072060;28;20196;-68
2022/06/03 09:35:28;;;;;;;7.47;3.33;;;;;;;37.34;26.25;99663.50;5072243;28;20228;-67
2022/06/03 09:37:58;;;;;;;3.25;3.00;;;;;;;37.54;26.09;99658.69;5072159;28;20223;-67
2022/06/03 09:40:29;;;;;;;5.15;3.20;;;;;;;37.76;25.36;99667.03;5072115;28;20188;-67
2022/06/03 09:43:00;;;;;;;10.82;3.08;;;;;;;37.45;26.02;99660.91;5071669;28;20271;-68
2022/06/03 09:45:28;;;;;;;4.25;3.20;;;;;;;37.65;26.19;99668.84;5075269;28;20210;-69
2022/06/03 09:47:56;;;;;;;7.68;2.60;;;;;;;37.75;25.28;99659.88;5071932;28;20192;-69
2022/06/03 09:50:25;;;;;;;2.83;2.63;;;;;;;37.86;24.10;99649.78;5072088;28;20231;-69
2022/06/03 09:53:01;;;;;;;4.63;2.95;;;;;;;37.79;24.59;99649.66;5071916;28;20671;-68
2022/06/03 09:55:31;;;;;;;3.60;2.80;;;;;;;37.98;24.91;99646.78;5072855;28;20215;-69
2022/06/03 09:58:02;;;;;;;6.40;3.22;;;;;;;37.84;23.88;99646.53;5072648;28;20196;-68
2022/06/03 10:00:36;;;;;;;3.00;2.70;;;;;;;37.96;23.56;99663.00;5072789;28;20196;-63
2022/06/03 10:03:04;;;;;;;4.32;2.75;;;;;;;38.14;23.17;99654.97;5072709;28;20180;-66
2022/06/03 10:05:31;;;;;;;4.20;2.38;;;;;;;38.32;22.97;99662.38;5071804;28;20199;-65
2022/06/03 10:08:01;;;;;;;2.85;2.45;;;;;;;38.29;22.46;99659.56;5071715;28;20196;-65
2022/06/03 10:13:15;;;;;;;2.78;2.60;;;;;;;37.95;22.85;99650.28;5072383;28;20604;-65
2022/06/03 10:15:48;;;;;;;3.17;2.20;;;;;;;38.01;20.69;99668.25;5071826;28;20215;-66
2022/06/03 10:18:33;;;;;;;17.40;2.92;;;;;;;38.09;21.38;99663.63;5072059;28;20184;-63
2022/06/03 10:21:28;;;;;;;8.10;2.78;;;;;;;37.47;21.83;99676.00;5071414;28;20669;-65
2022/06/03 10:23:56;;;;;;;9.20;2.75;;;;;;;37.41;21.48;99671.97;5072328;28;20184;-64
2022/06/03 10:26:27;;;;;;;5.28;2.70;;;;;;;37.52;21.94;99678.50;5071115;28;20203;-65
2022/06/03 10:28:56;;;;;;;4.53;2.47;;;;;;;37.50;22.81;99672.50;5072166;28;20192;-65
2022/06/03 10:31:29;;;;;;;7.07;2.58;;;;;;;36.97;22.49;99673.47;5071940;28;20223;-65
2022/06/03 10:34:00;;;;;;;5.28;2.83;;;;;;;37.13;22.28;99665.88;5069744;28;20733;-65
2022/06/03 10:36:32;;;;;;;3.78;2.58;;;;;;;37.09;22.09;99656.69;5055595;28;20298;-64
2022/06/03 10:38:59;;;;;;;4.40;2.40;;;;;;;37.14;22.91;99645.31;5071270;28;20614;-65
2022/06/03 10:41:34;;;;;;;7.03;2.88;;;;;;;37.12;22.81;99655.97;5068724;28;20624;-65
2022/06/03 10:44:10;;;;;;;2.40;2.20;;;;;;;37.21;22.22;99664.88;5071200;28;20195;-64
2022/06/03 10:46:37;;;;;;;5.28;4.65;;;;;;;37.38;21.90;99655.25;5071261;28;20245;-64
2022/06/03 10:49:12;;;;;;;17.45;3.88;;;;;;;37.39;22.69;99651.31;5070914;28;20196;-64
2022/06/03 11:02:50;;;;;;;3.55;2.78;;;;;;;36.23;23.91;99651.72;5009264;28;20209;-63
2022/06/03 11:05:23;;;;;;;2.92;2.72;;;;;;;36.22;23.36;99653.66;5075544;28;20195;-63
2022/06/03 11:07:59;;;;;;;4.65;2.40;;;;;;;36.12;23.12;99647.88;5074506;28;20199;-62
2022/06/03 11:10:30;;;;;;;6.40;2.70;;;;;;;36.39;22.83;99642.22;5074816;28;20695;-62
2022/06/03 11:12:59;;;;;;;2.80;2.58;;;;;;;35.40;23.42;99640.19;5075357;28;20234;-62
2022/06/03 11:15:32;;;;;;;3.08;2.65;;;;;;;35.59;23.19;99641.06;5066908;28;20220;-64
2022/06/03 11:18:01;;;;;;;2.85;2.42;;;;;;;35.38;22.93;99639.72;5055063;28;20189;-66
2022/06/03 11:20:36;;;;;;;3.33;2.50;;;;;;;35.78;22.32;99627.34;5060160;28;20723;-66
2022/06/03 11:23:07;;;;;;;3.00;2.75;;;;;;;35.80;22.33;99638.06;5074727;28;20202;-67
2022/06/03 11:25:36;;;;;;;2.92;2.63;;;;;;;35.87;23.09;99627.13;5074245;28;20578;-63
2022/06/03 11:28:06;;;;;;;6.15;2.75;;;;;;;35.81;22.39;99639.66;5074898;28;20616;-63
2022/06/03 11:30:43;;;;;;;5.55;2.22;;;;;;;36.02;20.17;99626.31;5075723;28;20238;-64
2022/06/03 11:33:16;;;;;;;2.85;2.38;;;;;;;36.25;19.68;99625.28;5074975;28;20250;-65
2022/06/03 11:35:48;;;;;;;3.47;2.55;;;;;;;36.37;20.53;99621.56;5074727;28;20695;-64
2022/06/03 11:38:22;;;;;;;8.00;2.50;;;;;;;36.64;20.94;99610.28;5074439;28;20188;-64
2022/06/03 11:40:54;;;;;;;4.22;1.98;;;;;;;36.73;20.30;99613.66;5074112;28;20207;-64
2022/06/03 11:43:27;;;;;;;1.80;1.70;;;;;;;36.99;19.95;99610.97;5074247;28;20666;-63
2022/06/03 11:46:00;;;;;;;2.50;2.10;;;;;;;37.08;20.10;99602.44;5074935;28;20203;-63
2022/06/03 11:48:31;;;;;;;3.25;2.30;;;;;;;37.22;20.64;99597.16;5073894;28;20188;-65
2022/06/03 11:50:58;;;;;;;2.97;2.38;;;;;;;37.05;21.39;99597.63;5074623;28;20220;-64
2022/06/03 11:53:29;;;;;;;5.32;2.55;;;;;;;36.74;21.68;99590.34;5073768;28;20192;-64
2022/06/03 11:56:04;;;;;;;7.28;3.00;;;;;;;36.68;22.07;99589.03;5075271;28;20208;-64
2022/06/03 11:58:45;;;;;;;3.75;2.70;;;;;;;36.65;22.31;99580.63;5074263;28;20196;-64
2022/06/03 12:01:18;;;;;;;2.85;2.65;;;;;;;36.80;21.54;99585.28;5074592;28;20184;-63
2022/06/03 12:03:55;;;;;;;7.53;2.58;;;;;;;36.94;21.83;99580.00;5073719;28;20644;-63
2022/06/03 12:06:29;;;;;;;3.70;2.60;;;;;;;36.96;21.53;99588.75;5074800;28;20198;-63
2022/06/03 12:09:00;;;;;;;4.45;2.45;;;;;;;37.13;21.01;99591.03;5073432;28;20269;-63
2022/06/03 12:14:30;;;;;;;5.03;2.55;;;;;;;36.40;21.30;99593.97;5074080;28;20750;-63
2022/06/03 12:17:19;;;;;;;2.83;2.63;;;;;;;36.81;20.92;99607.09;5074803;28;20212;-64
2022/06/03 12:19:48;;;;;;;3.08;2.72;;;;;;;36.96;21.22;99605.38;5073899;28;20211;-63
2022/06/03 12:22:20;;;;;;;2.45;2.25;;;;;;;37.16;21.36;99601.44;5073440;28;20291;-64
2022/06/03 12:24:49;;;;;;;2.72;2.53;;;;;;;37.14;21.20;99596.25;5073773;28;20191;-64
2022/06/03 12:27:27;;;;;;;3.28;2.03;;;;;;;37.05;20.54;99598.44;5074370;28;20195;-64
2022/06/03 12:30:20;;;;;;;6.93;2.53;;;;;;;36.89;23.90;99624.63;5073552;28;20180;-64
2022/06/03 12:32:55;;;;;;;11.05;3.42;;;;;;;35.26;31.33;99606.59;5074289;28;20184;-64
2022/06/03 12:35:52;;;;;;;8.30;3.67;;;;;;;34.59;33.55;99601.22;5074031;28;20207;-64
2022/06/03 12:38:51;;;;;;;15.45;3.78;;;;;;;33.10;35.94;99600.41;5066864;28;20254;-63
2022/06/03 12:41:55;;;;;;;12.27;3.83;;;;;;;33.07;36.63;99611.31;5058088;28;20731;-65
2022/06/03 12:44:46;;;;;;;22.55;3.70;;;;;;;33.22;36.77;99636.22;5073306;28;20187;-65
2022/06/03 12:47:47;;;;;;;20.70;4.90;;;;;;;32.84;37.43;99612.84;5071896;28;20978;-67
2022/06/03 12:50:55;;;;;;;7.22;3.38;;;;;;;33.32;36.57;99625.94;5010972;28;20716;-64
2022/06/03 12:53:38;;;;;;;17.77;4.00;;;;;;;33.05;37.21;99589.63;5072813;28;20279;-65
2022/06/03 12:56:10;;;;;;;15.83;3.90;;;;;;;32.84;36.39;99605.41;5072179;28;20204;-64
2022/06/03 12:58:53;;;;;;;10.43;3.40;;;;;;;32.87;36.53;99606.66;5052924;28;20181;-63
2022/06/03 13:01:48;;;;;;;5.57;3.50;;;;;;;33.20;36.09;99590.91;5053517;28;20189;-64
2022/06/03 13:04:54;;;;;;;10.10;3.35;;;;;;;32.58;37.58;99577.28;5039728;28;20196;-64
2022/06/03 13:07:36;;;;;;;6.90;3.50;;;;;;;32.22;38.96;99574.34;5052783;28;20554;-63
2022/06/03 13:10:38;;;;;;;12.93;3.77;;;;;;;32.45;38.43;99583.06;5052803;28;20188;-64
2022/06/03 13:13:35;;;;;;;6.27;3.40;;;;;;;32.26;37.88;99593.75;5052579;28;20249;-65
2022/06/03 13:16:38;;;;;;;9.80;3.40;;;;;;;32.11;37.67;99589.66;5052833;28;20205;-65
2022/06/03 13:19:50;;;;;;;5.37;3.90;;;;;;;32.31;38.05;99613.63;5078731;28;20191;-64
2022/06/03 13:22:51;;;;;;;4.13;3.07;;;;;;;32.61;36.42;99603.31;5052255;28;20676;-65